Homer, Louisiana
Current Conditions -  °F | °C
As of 11:16 PM on Wednesday 26 Nov 2014 (Local Time) from KMNE Reporting Station
Clear Clear  
Wind Chill: 45°   Ceiling: Unl
Heat Index: 45°   Visibility: 10mi
Dew Point: 36°   Wind: 0mph
Humidity: 71%   Direction: NA
Pressure: 30.32"   Gusts: NA
Location:  32.79°N, 93.06°W
Report Text: KMNE 270516Z AUTO 00000KT 10SM CLR 07/02 A3032 RMK AO2
Loading
Personal Weather Stations






























Interactive Weather Map New forecast layout! Learn more

10-Day Weather Forecast

Advertisements
Track Severe Weather on mobile